Time;durP1;ratioP1;P1;durP2;ratioP2;P2;SDS_P1;SDS_P2;PMS_P1;PMS_P2;Temp;Humidity;BMP_temperature;BMP_pressure;BME280_temperature;BME280_humidity;BME280_pressure;Samples;Min_cycle;Max_cycle;Signal;HPM_P1;HPM_P2
2022/11/10 00:00:35;;;;;;;8.73;1.95;;;10.20;99.90;;;;;;4946360;28;20046;-77
2022/11/10 00:03:04;;;;;;;9.70;2.40;;;10.20;99.90;;;;;;4957927;29;20344;-77
2022/11/10 00:05:31;;;;;;;8.05;2.45;;;10.20;99.90;;;;;;4957667;28;20035;-77
2022/11/10 00:08:00;;;;;;;6.15;2.30;;;10.20;99.90;;;;;;4960204;28;20125;-76
2022/11/10 00:10:26;;;;;;;13.40;2.20;;;10.30;99.90;;;;;;4967605;28;20038;-76
2022/11/10 00:12:52;;;;;;;11.52;2.72;;;10.20;99.90;;;;;;4943178;29;20074;-76
2022/11/10 00:18:03;;;;;;;7.20;2.15;;;10.10;99.90;;;;;;4959099;28;20043;-76
2022/11/10 00:20:29;;;;;;;7.40;2.58;;;10.20;99.90;;;;;;4962128;28;20077;-76
2022/11/10 00:22:55;;;;;;;11.10;2.45;;;10.10;99.90;;;;;;4958301;28;20067;-76
2022/11/10 00:25:21;;;;;;;8.57;2.80;;;10.10;99.90;;;;;;4964595;28;20234;-76
2022/11/10 00:27:48;;;;;;;12.60;4.05;;;9.90;99.90;;;;;;4968624;28;20296;-76
2022/11/10 00:30:14;;;;;;;12.65;2.75;;;9.90;99.90;;;;;;4947794;29;20070;-77
2022/11/10 00:32:40;;;;;;;10.50;3.10;;;10.10;99.90;;;;;;4939738;28;20035;-76
2022/11/10 00:35:08;;;;;;;11.20;2.50;;;9.90;99.90;;;;;;4978716;28;20031;-77
2022/11/10 00:37:34;;;;;;;9.70;2.78;;;10.00;99.90;;;;;;4976192;28;20129;-76
2022/11/10 00:40:00;;;;;;;11.32;2.55;;;10.00;99.90;;;;;;4964663;28;20070;-76
2022/11/10 00:42:28;;;;;;;15.15;2.80;;;9.90;99.90;;;;;;4948600;29;20066;-78
2022/11/10 00:44:54;;;;;;;12.77;2.95;;;9.80;99.90;;;;;;4944728;28;20046;-78
2022/11/10 00:47:19;;;;;;;14.30;3.10;;;10.00;99.90;;;;;;4933061;28;20229;-77
2022/11/10 00:49:45;;;;;;;11.75;3.15;;;9.80;99.90;;;;;;4958325;28;20262;-76
2022/11/10 00:52:11;;;;;;;9.63;2.92;;;9.90;99.90;;;;;;4941768;29;20046;-76
2022/11/10 00:54:36;;;;;;;8.95;3.15;;;10.00;99.90;;;;;;4948274;28;20065;-76
2022/11/10 00:57:02;;;;;;;11.98;2.75;;;10.20;99.90;;;;;;4907091;29;20106;-76
2022/11/10 00:59:28;;;;;;;9.45;3.25;;;10.10;99.90;;;;;;4941520;29;20096;-76
2022/11/10 01:01:53;;;;;;;9.23;2.83;;;10.00;99.90;;;;;;4969092;28;20023;-76
2022/11/10 01:04:19;;;;;;;12.82;2.90;;;9.90;99.90;;;;;;4947825;28;20042;-75
2022/11/10 01:06:46;;;;;;;10.35;2.97;;;10.10;99.90;;;;;;4957148;28;20027;-76
2022/11/10 01:09:12;;;;;;;11.10;3.35;;;10.10;99.90;;;;;;4949507;28;20187;-76
2022/11/10 01:11:38;;;;;;;14.38;4.03;;;9.90;99.90;;;;;;4959049;28;20087;-79
2022/11/10 01:14:04;;;;;;;7.95;2.85;;;9.90;99.90;;;;;;4940477;29;20046;-76
2022/11/10 01:16:31;;;;;;;11.20;2.90;;;10.00;99.90;;;;;;4948366;29;20065;-76
2022/11/10 01:18:59;;;;;;;15.27;3.50;;;10.00;99.90;;;;;;4953557;28;20073;-76
2022/11/10 01:21:25;;;;;;;23.13;4.05;;;10.00;99.90;;;;;;4954645;28;20037;-76
2022/11/10 01:23:51;;;;;;;9.77;2.95;;;10.00;99.90;;;;;;4956978;28;20462;-77
2022/11/10 01:26:18;;;;;;;19.40;4.00;;;10.00;99.90;;;;;;4948162;28;20062;-77
2022/11/10 01:28:44;;;;;;;10.40;3.75;;;9.90;99.90;;;;;;4953785;28;20032;-78
2022/11/10 01:31:13;;;;;;;13.23;3.38;;;10.00;99.90;;;;;;4947347;29;20023;-77
2022/11/10 01:33:38;;;;;;;13.57;3.72;;;10.00;99.90;;;;;;4961313;28;20533;-76
2022/11/10 01:36:05;;;;;;;16.48;3.55;;;9.90;99.90;;;;;;4970198;28;20065;-77
2022/11/10 01:38:34;;;;;;;20.20;4.60;;;10.00;99.90;;;;;;4975883;28;20043;-77
2022/11/10 01:41:03;;;;;;;16.98;5.60;;;10.20;99.90;;;;;;4945003;29;20039;-76
2022/11/10 01:43:29;;;;;;;12.35;4.25;;;11.90;99.90;;;;;;4964873;28;20199;-75
2022/11/10 01:46:09;;;;;;;15.27;4.05;;;10.20;99.90;;;;;;4973141;28;20034;-76
2022/11/10 01:48:55;;;;;;;17.23;4.18;;;10.10;99.90;;;;;;4948114;29;20062;-77
2022/11/10 01:51:21;;;;;;;14.27;4.30;;;9.90;99.90;;;;;;4967417;28;21322;-76
2022/11/10 01:54:09;;;;;;;14.98;4.63;;;10.00;99.90;;;;;;4954579;28;20050;-76
2022/11/10 01:56:48;;;;;;;15.35;4.60;;;10.20;99.90;;;;;;4950323;28;20059;-76
2022/11/10 01:59:21;;;;;;;14.32;4.10;;;10.00;99.90;;;;;;4950438;28;20047;-75
2022/11/10 02:01:48;;;;;;;17.23;4.35;;;10.00;99.90;;;;;;4961341;28;20046;-76
2022/11/10 02:04:17;;;;;;;13.13;4.70;;;10.10;99.90;;;;;;4960732;28;20321;-77
2022/11/10 02:06:44;;;;;;;18.52;5.53;;;10.20;99.90;;;;;;4941051;28;20039;-76
2022/11/10 02:09:11;;;;;;;12.60;3.88;;;9.90;99.90;;;;;;4961982;28;20027;-77
2022/11/10 02:11:38;;;;;;;21.35;7.38;;;10.70;99.90;;;;;;4961403;28;20412;-77
2022/11/10 02:14:04;;;;;;;19.50;5.07;;;9.90;99.90;;;;;;4930779;29;20338;-76
2022/11/10 02:16:31;;;;;;;13.38;4.88;;;10.10;99.90;;;;;;4944785;28;20027;-74
2022/11/10 02:18:57;;;;;;;15.68;5.00;;;10.10;99.90;;;;;;4942446;29;20065;-76
2022/11/10 02:21:22;;;;;;;19.15;5.10;;;10.10;99.90;;;;;;4943449;29;20082;-75
2022/11/10 02:23:53;;;;;;;9.30;4.70;;;9.90;99.90;;;;;;4954985;28;20293;-76
2022/11/10 02:26:22;;;;;;;13.40;5.35;;;10.00;99.90;;;;;;4967292;28;20396;-76
2022/11/10 02:28:48;;;;;;;19.83;6.07;;;10.00;99.90;;;;;;4962295;28;20039;-74
2022/11/10 02:31:13;;;;;;;16.73;5.68;;;10.10;99.90;;;;;;4943863;28;20039;-75
2022/11/10 02:33:39;;;;;;;16.65;5.53;;;10.10;99.90;;;;;;4938674;29;20046;-77
2022/11/10 02:36:05;;;;;;;18.25;6.07;;;10.10;99.90;;;;;;4922416;28;20043;-75
2022/11/10 02:38:31;;;;;;;13.18;5.25;;;10.10;99.90;;;;;;4931892;28;20037;-76
2022/11/10 02:40:57;;;;;;;24.88;6.55;;;12.00;99.90;;;;;;4938142;29;20035;-75
2022/11/10 02:43:23;;;;;;;20.38;7.07;;;9.80;99.90;;;;;;4926910;29;20222;-75
2022/11/10 02:45:48;;;;;;;19.27;6.00;;;9.80;99.90;;;;;;4942147;29;20121;-76
2022/11/10 02:48:15;;;;;;;19.25;5.38;;;9.80;99.90;;;;;;4948339;28;20111;-76
2022/11/10 02:50:41;;;;;;;21.85;6.57;;;9.80;99.90;;;;;;4944587;29;20043;-77
2022/11/10 02:53:07;;;;;;;19.75;6.38;;;10.10;99.90;;;;;;4960251;28;20218;-75
2022/11/10 02:55:33;;;;;;;18.30;5.85;;;10.10;99.90;;;;;;4971294;28;20042;-76
2022/11/10 02:57:58;;;;;;;16.98;6.10;;;9.90;99.90;;;;;;4973599;28;20062;-76
2022/11/10 03:00:25;;;;;;;20.50;5.60;;;9.70;99.90;;;;;;4953219;28;20049;-77
2022/11/10 03:03:01;;;;;;;12.43;5.60;;;10.00;99.90;;;;;;4957016;28;20027;-76
2022/11/10 03:05:28;;;;;;;18.95;6.45;;;10.30;99.90;;;;;;4978619;28;20177;-76
2022/11/10 03:07:59;;;;;;;19.50;6.20;;;10.00;99.90;;;;;;4967621;28;20190;-77
2022/11/10 03:10:26;;;;;;;17.25;5.45;;;9.70;99.90;;;;;;4967684;28;20042;-76
2022/11/10 03:13:00;;;;;;;17.67;6.78;;;9.80;99.90;;;;;;4950175;29;20074;-76
2022/11/10 03:15:27;;;;;;;12.60;5.53;;;10.00;99.90;;;;;;4969327;28;20039;-77
2022/11/10 03:17:53;;;;;;;20.73;6.82;;;9.80;99.90;;;;;;4979594;28;20229;-75
2022/11/10 03:20:18;;;;;;;22.35;6.57;;;10.10;99.90;;;;;;4986565;28;20205;-77
2022/11/10 03:22:44;;;;;;;16.40;5.40;;;10.30;99.90;;;;;;4960696;28;20092;-77
2022/11/10 03:25:11;;;;;;;19.40;5.80;;;10.00;99.90;;;;;;4951597;28;20406;-76
2022/11/10 03:27:36;;;;;;;13.60;6.00;;;9.80;99.90;;;;;;4955427;28;20062;-75
2022/11/10 03:30:04;;;;;;;20.77;5.40;;;9.70;99.90;;;;;;4940032;28;20098;-76
2022/11/10 03:32:30;;;;;;;13.43;5.43;;;9.90;99.90;;;;;;4979987;28;20070;-76
2022/11/10 03:34:56;;;;;;;15.93;5.72;;;9.80;99.90;;;;;;4958528;28;20034;-76
2022/11/10 03:37:22;;;;;;;20.30;6.68;;;9.60;99.90;;;;;;4981085;28;20050;-75
2022/11/10 03:39:47;;;;;;;20.40;5.82;;;10.00;99.90;;;;;;4983459;28;20513;-76
2022/11/10 03:42:13;;;;;;;22.63;7.13;;;9.80;99.90;;;;;;4990715;28;20044;-76
2022/11/10 03:44:39;;;;;;;17.88;5.40;;;9.70;99.90;;;;;;4968689;28;20525;-77
2022/11/10 03:47:04;;;;;;;22.23;6.20;;;10.00;99.90;;;;;;4933470;28;20216;-77
2022/11/10 03:49:31;;;;;;;21.95;5.85;;;9.90;99.90;;;;;;4983149;28;20038;-75
2022/11/10 03:51:57;;;;;;;15.80;5.50;;;10.10;99.90;;;;;;4954810;28;20027;-75
2022/11/10 03:54:23;;;;;;;18.38;5.60;;;9.80;99.90;;;;;;4956512;28;20035;-75
2022/11/10 03:56:49;;;;;;;17.40;5.18;;;11.20;99.90;;;;;;4943329;29;20186;-76
2022/11/10 03:59:14;;;;;;;13.07;4.57;;;9.90;99.90;;;;;;4956348;28;20046;-76
2022/11/10 04:01:40;;;;;;;13.45;4.55;;;9.60;99.90;;;;;;4949508;28;20027;-76
2022/11/10 04:08:57;;;;;;;15.95;5.20;;;9.70;99.90;;;;;;4984393;28;20023;-75
2022/11/10 04:09:36;;;;;;;16.47;4.73;;;9.90;99.90;;;;;;4966626;28;20042;-76
2022/11/10 04:17:32;;;;;;;9.95;5.40;;;9.50;99.90;;;;;;4970182;28;20046;-76
2022/11/10 04:20:03;;;;;;;18.60;5.72;;;10.20;99.90;;;;;;4960141;28;20027;-76
2022/11/10 04:25:13;;;;;;;14.18;5.53;;;9.90;99.90;;;;;;4951701;28;20254;-76
2022/11/10 04:27:39;;;;;;;16.98;5.70;;;9.70;99.90;;;;;;4969204;28;20038;-76
2022/11/10 04:30:05;;;;;;;25.25;7.05;;;10.00;99.90;;;;;;4942554;28;20038;-76
2022/11/10 04:32:31;;;;;;;17.52;6.53;;;9.70;99.90;;;;;;4967428;28;20054;-77
2022/11/10 04:34:56;;;;;;;16.83;6.35;;;9.70;99.90;;;;;;4967477;28;20054;-78
2022/11/10 04:37:22;;;;;;;15.77;5.80;;;9.70;99.90;;;;;;4951414;28;20038;-77
2022/11/10 04:39:47;;;;;;;23.17;5.40;;;10.50;99.90;;;;;;4951490;28;20038;-77
2022/11/10 04:42:13;;;;;;;19.08;6.40;;;9.90;99.90;;;;;;4982453;28;20058;-76
2022/11/10 04:44:39;;;;;;;20.15;7.05;;;10.10;99.90;;;;;;4935396;28;20089;-76
2022/11/10 04:47:05;;;;;;;16.65;5.80;;;9.90;99.90;;;;;;4967095;28;20085;-77
2022/11/10 04:49:31;;;;;;;18.48;6.03;;;9.80;99.90;;;;;;4967601;28;20043;-77
2022/11/10 04:51:56;;;;;;;25.73;7.30;;;9.90;99.90;;;;;;4966744;28;20066;-78
2022/11/10 04:54:22;;;;;;;20.45;6.82;;;10.00;99.90;;;;;;4983036;28;20062;-78
2022/11/10 04:56:47;;;;;;;17.15;6.72;;;9.70;99.90;;;;;;4946314;28;20051;-77
2022/11/10 04:59:13;;;;;;;28.45;8.88;;;10.10;99.90;;;;;;4976303;28;20046;-77
2022/11/10 05:01:39;;;;;;;24.58;7.50;;;10.40;99.90;;;;;;4967389;28;20232;-77
2022/11/10 05:04:07;;;;;;;18.58;7.78;;;10.20;99.90;;;;;;4982831;28;20042;-77
2022/11/10 05:06:33;;;;;;;24.25;6.82;;;10.50;99.90;;;;;;4950861;28;20112;-77
2022/11/10 05:08:59;;;;;;;19.77;8.05;;;9.90;99.90;;;;;;4950820;28;20042;-76
2022/11/10 05:11:24;;;;;;;31.85;8.52;;;9.80;99.90;;;;;;4933865;28;20045;-77
2022/11/10 05:13:50;;;;;;;26.27;8.30;;;10.10;99.90;;;;;;4918483;28;20375;-76
2022/11/10 05:16:16;;;;;;;23.40;8.55;;;9.90;99.90;;;;;;4966403;28;20035;-77
2022/11/10 05:18:41;;;;;;;23.10;7.82;;;10.20;99.90;;;;;;4966886;28;20047;-76
2022/11/10 05:21:07;;;;;;;23.90;7.30;;;9.90;99.90;;;;;;4967106;28;20042;-79
2022/11/10 05:23:39;;;;;;;25.42;7.32;;;10.00;99.90;;;;;;4950972;28;20039;-78
2022/11/10 05:26:11;;;;;;;24.10;7.57;;;10.00;99.90;;;;;;4968601;28;20038;-77
2022/11/10 05:28:38;;;;;;;21.52;7.43;;;10.00;99.90;;;;;;4966262;28;20034;-76
2022/11/10 05:31:04;;;;;;;24.00;8.15;;;10.30;99.90;;;;;;4966846;28;20034;-76
2022/11/10 05:33:30;;;;;;;20.98;6.43;;;10.30;99.90;;;;;;4966363;28;20042;-78
2022/11/10 05:35:56;;;;;;;20.45;6.53;;;10.30;99.90;;;;;;4950887;28;20046;-77
2022/11/10 05:38:21;;;;;;;19.63;6.55;;;10.40;99.90;;;;;;4950101;28;20035;-76
2022/11/10 05:40:47;;;;;;;19.60;6.13;;;10.50;99.90;;;;;;4966517;28;20038;-76
2022/11/10 05:43:13;;;;;;;21.83;6.30;;;10.60;99.90;;;;;;4950586;28;20073;-75
2022/11/10 05:45:39;;;;;;;18.63;5.65;;;10.20;99.90;;;;;;4966554;28;20035;-76
2022/11/10 05:48:05;;;;;;;22.08;5.65;;;10.30;99.90;;;;;;4950357;28;20037;-76
2022/11/10 05:50:31;;;;;;;17.35;6.47;;;10.20;99.90;;;;;;4965867;28;20039;-75
2022/11/10 05:52:57;;;;;;;15.60;5.22;;;10.60;99.90;;;;;;4966474;28;20039;-76
2022/11/10 05:55:26;;;;;;;16.98;5.88;;;10.60;99.90;;;;;;4949887;28;20081;-76
2022/11/10 05:57:53;;;;;;;15.88;5.60;;;10.60;99.90;;;;;;4966191;28;20246;-77
2022/11/10 06:00:23;;;;;;;16.65;5.25;;;10.60;99.90;;;;;;4965633;28;20085;-77
2022/11/10 06:03:16;;;;;;;22.48;5.35;;;10.60;99.90;;;;;;4966327;28;20074;-78
2022/11/10 06:05:42;;;;;;;20.60;5.15;;;10.30;99.90;;;;;;4962339;28;20038;-78
2022/11/10 06:08:09;;;;;;;21.98;4.80;;;10.50;99.90;;;;;;4950113;28;20046;-78
2022/11/10 06:10:35;;;;;;;18.48;4.53;;;10.20;99.90;;;;;;4965559;28;20039;-79
2022/11/10 06:13:02;;;;;;;23.42;5.28;;;10.10;99.90;;;;;;4966420;28;20042;-76
2022/11/10 06:15:28;;;;;;;21.98;5.10;;;10.50;99.90;;;;;;4975550;28;20034;-77
2022/11/10 06:17:54;;;;;;;16.48;4.90;;;10.80;99.90;;;;;;4968983;28;20225;-76
2022/11/10 06:20:20;;;;;;;19.92;4.90;;;10.30;99.90;;;;;;4984695;28;20038;-77
2022/11/10 06:23:05;;;;;;;20.45;4.47;;;10.50;99.90;;;;;;4985203;28;20113;-77
2022/11/10 06:25:33;;;;;;;15.43;4.82;;;10.60;99.90;;;;;;4972204;28;20067;-76
2022/11/10 06:27:59;;;;;;;19.85;5.10;;;10.60;99.90;;;;;;4965869;28;20050;-77
2022/11/10 06:30:26;;;;;;;17.05;4.95;;;10.50;99.90;;;;;;4965676;28;20110;-77
2022/11/10 06:32:52;;;;;;;19.35;5.07;;;10.60;99.90;;;;;;4955047;28;20035;-77
2022/11/10 06:35:18;;;;;;;16.25;4.65;;;10.20;99.90;;;;;;4998634;28;20069;-77
2022/11/10 06:37:45;;;;;;;19.90;5.03;;;10.20;99.90;;;;;;4961811;28;20089;-77
2022/11/10 06:40:12;;;;;;;21.75;4.55;;;10.70;99.90;;;;;;4962648;28;20284;-80
2022/11/10 06:42:41;;;;;;;18.48;4.95;;;10.60;99.90;;;;;;4949339;28;20089;-80
2022/11/10 06:45:07;;;;;;;18.10;4.93;;;10.70;99.90;;;;;;4933617;28;20030;-77
2022/11/10 06:47:32;;;;;;;23.65;4.93;;;10.70;99.90;;;;;;4965147;28;20066;-79
2022/11/10 06:49:58;;;;;;;18.08;4.38;;;10.40;99.90;;;;;;4949112;28;20225;-78
2022/11/10 06:52:24;;;;;;;18.20;4.68;;;10.30;99.90;;;;;;4933099;28;20252;-78
2022/11/10 06:54:49;;;;;;;18.13;5.18;;;10.80;99.90;;;;;;4933128;28;20069;-77
2022/11/10 06:57:15;;;;;;;16.45;4.55;;;10.70;99.90;;;;;;4961532;29;20058;-77
2022/11/10 06:59:41;;;;;;;20.35;5.57;;;10.60;99.90;;;;;;4922509;29;20047;-78
2022/11/10 07:02:13;;;;;;;20.00;4.38;;;10.60;99.90;;;;;;4976828;28;20023;-77
2022/11/10 07:04:38;;;;;;;26.60;4.85;;;10.60;99.90;;;;;;4977071;28;20106;-78
2022/11/10 07:07:04;;;;;;;16.23;4.85;;;10.90;99.90;;;;;;4947874;29;20030;-78
2022/11/10 07:09:30;;;;;;;18.52;4.97;;;10.80;99.90;;;;;;4918814;29;20034;-77
2022/11/10 07:11:56;;;;;;;23.35;5.25;;;10.80;99.90;;;;;;4962606;29;20130;-78
2022/11/10 07:14:21;;;;;;;17.02;4.90;;;10.50;99.90;;;;;;4967256;28;20101;-79
2022/11/10 07:16:47;;;;;;;17.20;4.95;;;10.60;99.90;;;;;;4945509;28;20042;-80
2022/11/10 07:19:13;;;;;;;23.45;5.75;;;10.80;99.90;;;;;;4983634;28;20045;-78
2022/11/10 07:21:41;;;;;;;22.95;6.07;;;10.60;99.90;;;;;;4964924;28;20035;-79
2022/11/10 07:24:07;;;;;;;23.40;6.35;;;11.00;99.90;;;;;;4965757;28;20167;-77
2022/11/10 07:26:33;;;;;;;20.10;5.97;;;11.00;99.90;;;;;;4967134;28;20086;-78
2022/11/10 07:28:59;;;;;;;21.73;6.10;;;10.50;99.90;;;;;;4963600;29;20035;-78
2022/11/10 07:31:27;;;;;;;17.20;5.90;;;10.90;99.90;;;;;;4975865;28;20315;-79
2022/11/10 07:33:53;;;;;;;19.40;5.88;;;10.80;99.90;;;;;;4917039;29;20078;-79
2022/11/10 07:36:19;;;;;;;20.42;5.78;;;;;;;;;;4948244;29;20195;-80
2022/11/10 07:38:46;;;;;;;22.83;6.05;;;10.70;99.90;;;;;;4961071;29;20051;-79
2022/11/10 07:41:12;;;;;;;29.38;6.00;;;11.00;99.90;;;;;;4952569;29;20035;-79
2022/11/10 07:43:38;;;;;;;20.75;6.40;;;11.10;99.90;;;;;;4920063;29;20050;-79
2022/11/10 07:46:03;;;;;;;15.63;5.25;;;10.70;99.90;;;;;;4964377;29;20031;-79
2022/11/10 07:48:29;;;;;;;21.63;6.00;;;10.80;99.90;;;;;;4952230;29;20109;-80
2022/11/10 07:50:55;;;;;;;19.42;6.15;;;11.00;99.90;;;;;;4962625;29;20078;-79
2022/11/10 07:53:20;;;;;;;25.10;5.72;;;10.60;99.90;;;;;;4951585;29;20043;-78
2022/11/10 07:55:46;;;;;;;23.05;6.10;;;10.60;99.90;;;;;;4929713;29;20051;-80
2022/11/10 07:58:15;;;;;;;20.95;5.28;;;11.00;99.90;;;;;;4966863;28;20051;-78
2022/11/10 08:00:42;;;;;;;14.27;5.00;;;10.60;99.90;;;;;;4958738;29;20031;-78
2022/11/10 08:03:11;;;;;;;18.40;5.38;;;10.80;99.90;;;;;;4946273;29;20139;-78
2022/11/10 08:05:37;;;;;;;18.02;5.45;;;11.20;99.90;;;;;;4965621;28;20023;-78
2022/11/10 08:08:03;;;;;;;16.90;5.40;;;10.70;99.90;;;;;;4967039;29;20094;-78
2022/11/10 08:10:30;;;;;;;21.50;5.35;;;11.10;99.90;;;;;;4965411;29;20051;-78
2022/11/10 08:13:00;;;;;;;16.45;5.10;;;10.70;99.90;;;;;;4915332;29;20034;-78
2022/11/10 08:15:27;;;;;;;20.58;5.32;;;10.90;99.90;;;;;;4950281;29;20050;-78
2022/11/10 08:18:00;;;;;;;21.70;5.20;;;10.70;99.90;;;;;;4958499;28;20493;-77
2022/11/10 08:20:26;;;;;;;17.10;4.57;;;10.70;99.90;;;;;;4946976;29;20114;-78
2022/11/10 08:22:58;;;;;;;17.75;6.10;;;10.90;99.90;;;;;;4942084;29;20031;-78
2022/11/10 08:25:25;;;;;;;18.88;4.95;;;11.20;99.90;;;;;;4947331;29;20077;-79
2022/11/10 08:27:59;;;;;;;18.05;4.50;;;11.70;99.90;;;;;;4942202;29;20047;-78
2022/11/10 08:30:25;;;;;;;;;;;11.40;99.90;;;;;;4963713;29;20345;-78
2022/11/10 08:32:54;;;;;;;14.57;5.22;;;11.60;99.90;;;;;;4941299;29;19922;-78
2022/11/10 08:35:20;;;;;;;19.98;4.97;;;12.10;99.90;;;;;;4966409;28;20078;-78
2022/11/10 08:37:45;;;;;;;17.17;4.25;;;11.90;99.90;;;;;;4940448;29;20097;-79
2022/11/10 08:40:11;;;;;;;17.13;4.47;;;12.20;99.90;;;;;;4944191;29;20111;-78
2022/11/10 08:42:37;;;;;;;13.80;3.85;;;12.60;99.90;;;;;;4944052;29;20228;-79
2022/11/10 08:45:03;;;;;;;16.30;4.07;;;12.60;99.90;;;;;;4957994;29;20486;-78
2022/11/10 08:47:28;;;;;;;12.85;4.30;;;12.40;99.90;;;;;;4963127;29;20150;-78
2022/11/10 08:49:54;;;;;;;18.90;4.88;;;12.50;99.90;;;;;;4926430;29;20047;-79
2022/11/10 08:52:20;;;;;;;18.45;4.65;;;12.30;99.90;;;;;;4960149;28;20043;-78
2022/11/10 08:54:45;;;;;;;14.00;4.50;;;12.40;99.90;;;;;;4930735;29;20027;-78
2022/11/10 08:57:11;;;;;;;13.73;3.95;;;12.60;99.90;;;;;;4943473;29;20122;-78
2022/11/10 08:59:37;;;;;;;14.10;4.25;;;12.60;99.90;;;;;;4923496;29;20121;-79
2022/11/10 09:02:02;;;;;;;13.10;4.00;;;12.70;99.90;;;;;;4931499;29;20262;-78
2022/11/10 09:04:28;;;;;;;13.43;3.72;;;12.40;99.90;;;;;;4947077;29;20031;-79
2022/11/10 09:06:56;;;;;;;10.98;3.88;;;12.40;99.90;;;;;;4926466;29;20102;-79
2022/11/10 09:09:25;;;;;;;18.67;4.45;;;12.50;99.90;;;;;;4947303;29;20031;-78
2022/11/10 09:11:51;;;;;;;16.10;4.65;;;12.90;99.90;;;;;;4957318;29;20213;-78
2022/11/10 09:14:16;;;;;;;8.07;3.40;;;13.20;99.90;;;;;;4936690;29;20058;-79
2022/11/10 09:16:42;;;;;;;12.40;4.28;;;13.40;99.90;;;;;;4930607;29;20026;-78
2022/11/10 09:19:08;;;;;;;11.32;3.45;;;13.50;99.90;;;;;;4940427;29;20399;-79
2022/11/10 09:21:34;;;;;;;13.75;3.88;;;13.90;99.90;;;;;;4946139;29;20102;-78
2022/11/10 09:24:03;;;;;;;15.65;3.70;;;14.00;99.90;;;;;;4958047;29;20031;-78
2022/11/10 09:26:30;;;;;;;13.55;3.75;;;13.90;99.90;;;;;;4961185;28;20211;-80
2022/11/10 09:28:56;;;;;;;14.68;4.25;;;14.20;99.90;;;;;;4965103;28;20101;-82
2022/11/10 09:31:22;;;;;;;12.20;4.13;;;14.20;99.90;;;;;;4959854;29;20031;-80
2022/11/10 09:33:48;;;;;;;11.30;3.50;;;14.00;99.90;;;;;;4955746;29;20035;-78
2022/11/10 09:36:13;;;;;;;15.18;4.15;;;14.10;99.90;;;;;;4940869;29;20038;-80
2022/11/10 09:38:39;;;;;;;16.45;3.55;;;14.00;99.90;;;;;;4930680;29;21482;-80
2022/11/10 09:41:08;;;;;;;12.77;3.97;;;12.60;99.90;;;;;;4945347;29;20078;-81
2022/11/10 09:44:07;;;;;;;19.52;4.55;;;13.90;99.90;;;;;;4960803;29;20262;-80
2022/11/10 09:46:40;;;;;;;20.02;4.55;;;13.40;99.90;;;;;;4960788;29;20263;-79
2022/11/10 09:49:28;;;;;;;14.88;4.38;;;13.30;99.90;;;;;;4953255;29;20102;-79
2022/11/10 09:51:56;;;;;;;19.45;5.53;;;13.30;99.90;;;;;;4953469;29;20085;-78
2022/11/10 09:54:43;;;;;;;16.92;4.72;;;13.40;99.90;;;;;;4946791;29;20030;-78
2022/11/10 09:57:16;;;;;;;12.88;4.05;;;13.20;99.90;;;;;;4956525;29;20055;-81
2022/11/10 09:59:43;;;;;;;15.30;4.60;;;13.20;99.90;;;;;;4974816;28;20047;-82
2022/11/10 10:02:33;;;;;;;17.95;4.30;;;13.10;99.90;;;;;;4960143;29;20035;-81
2022/11/10 10:05:07;;;;;;;18.17;4.65;;;13.00;99.90;;;;;;4943972;29;20027;-79
2022/11/10 10:07:50;;;;;;;16.55;5.50;;;13.10;99.90;;;;;;4959542;29;20043;-78
2022/11/10 10:10:36;;;;;;;11.35;4.50;;;12.90;99.90;;;;;;4957675;29;20317;-79
2022/11/10 10:13:35;;;;;;;19.88;5.60;;;12.90;99.90;;;;;;4956316;29;20344;-78
2022/11/10 10:16:34;;;;;;;12.30;4.60;;;12.90;99.90;;;;;;4960973;29;20035;-79
2022/11/10 10:19:39;;;;;;;15.73;5.88;;;13.00;99.90;;;;;;4962424;29;20051;-82
2022/11/10 10:22:41;;;;;;;16.88;4.95;;;13.00;99.90;;;;;;4961670;29;20094;-81
2022/11/10 10:25:15;;;;;;;12.25;4.13;;;13.00;99.90;;;;;;4961544;28;20050;-79
2022/11/10 10:27:45;;;;;;;22.00;5.47;;;13.10;99.90;;;;;;4944514;29;20039;-81
2022/11/10 10:30:18;;;;;;;13.77;4.82;;;13.20;99.90;;;;;;4961454;29;20047;-81
2022/11/10 10:32:44;;;;;;;15.05;4.63;;;13.00;99.90;;;;;;4936652;29;20038;-79
2022/11/10 10:35:17;;;;;;;16.40;4.53;;;13.20;99.90;;;;;;4960594;29;20313;-79
2022/11/10 10:37:55;;;;;;;18.35;4.70;;;13.00;99.90;;;;;;4960194;29;20285;-80
2022/11/10 10:40:22;;;;;;;15.48;5.53;;;13.20;99.90;;;;;;4960381;29;20031;-81
2022/11/10 10:42:48;;;;;;;15.27;4.13;;;12.90;99.90;;;;;;4937046;29;20369;-80
2022/11/10 10:45:16;;;;;;;17.20;4.20;;;13.00;99.90;;;;;;4944334;28;20023;-80
2022/11/10 10:47:42;;;;;;;14.20;4.50;;;13.20;99.90;;;;;;4937468;29;20290;-80
2022/11/10 10:50:31;;;;;;;12.10;4.55;;;13.20;99.90;;;;;;4944249;29;20326;-80
2022/11/10 10:53:13;;;;;;;11.70;4.25;;;13.40;99.90;;;;;;4960287;29;20260;-80
2022/11/10 10:55:45;;;;;;;16.25;4.43;;;13.90;99.90;;;;;;4945665;28;20047;-80
2022/11/10 10:58:28;;;;;;;12.68;4.60;;;13.80;99.90;;;;;;4959560;28;20046;-80
2022/11/10 11:01:03;;;;;;;18.42;5.05;;;13.70;99.90;;;;;;4944268;29;20253;-79
2022/11/10 11:03:39;;;;;;;12.95;4.68;;;13.70;99.90;;;;;;4959017;28;20027;-80
2022/11/10 11:06:14;;;;;;;19.80;5.80;;;13.70;99.90;;;;;;4974167;28;20121;-80
2022/11/10 11:09:00;;;;;;;15.43;4.55;;;13.70;99.90;;;;;;4940207;28;20110;-81
2022/11/10 11:11:39;;;;;;;18.40;5.05;;;13.80;99.90;;;;;;4963368;28;20206;-82
2022/11/10 11:14:22;;;;;;;15.68;4.82;;;13.60;99.90;;;;;;4967121;28;20304;-84
2022/11/10 11:16:53;;;;;;;14.75;5.28;;;13.60;99.90;;;;;;4952899;29;20102;-83
2022/11/10 11:19:26;;;;;;;15.68;4.38;;;13.60;99.90;;;;;;4964140;28;20036;-80
2022/11/10 11:22:27;;;;;;;13.52;4.80;;;13.70;99.90;;;;;;4946972;29;20382;-81
2022/11/10 11:25:18;;;;;;;14.15;4.95;;;13.70;99.90;;;;;;4954108;29;20046;-81
2022/11/10 11:27:44;;;;;;;16.40;5.32;;;13.60;99.90;;;;;;4943937;28;20043;-80
2022/11/10 11:30:15;;;;;;;17.15;4.78;;;13.50;99.90;;;;;;4952656;28;20105;-80
2022/11/10 11:33:14;;;;;;;15.40;4.97;;;13.50;99.90;;;;;;4963955;28;20217;-82
2022/11/10 11:35:49;;;;;;;21.05;5.25;;;13.60;99.90;;;;;;4959479;29;20043;-81
2022/11/10 11:38:39;;;;;;;19.23;5.00;;;13.50;99.90;;;;;;4962559;28;20102;-80
2022/11/10 11:41:23;;;;;;;16.48;5.20;;;13.40;99.90;;;;;;4939884;28;20041;-79
2022/11/10 11:43:58;;;;;;;13.60;4.87;;;13.40;99.90;;;;;;4964899;28;20073;-79
2022/11/10 11:46:50;;;;;;;18.55;4.95;;;13.40;99.90;;;;;;4948899;28;20105;-81
2022/11/10 11:49:21;;;;;;;21.13;5.72;;;13.40;99.90;;;;;;4960619;28;20070;-80
2022/11/10 11:52:10;;;;;;;16.50;5.35;;;13.40;99.90;;;;;;4961682;28;20039;-80
2022/11/10 11:55:05;;;;;;;14.48;4.93;;;13.50;99.90;;;;;;4987838;28;20026;-81
2022/11/10 11:58:13;;;;;;;17.85;5.05;;;13.50;99.90;;;;;;4972658;28;20057;-82
2022/11/10 12:01:13;;;;;;;17.25;4.22;;;13.60;99.90;;;;;;4892212;29;20037;-81
2022/11/10 12:03:58;;;;;;;14.50;4.22;;;13.60;99.90;;;;;;4900376;29;20047;-81
2022/11/10 12:06:41;;;;;;;13.50;3.90;;;13.60;99.90;;;;;;4958419;28;20050;-81
2022/11/10 12:09:48;;;;;;;13.98;3.90;;;13.60;99.90;;;;;;4950272;29;20034;-82
2022/11/10 12:12:38;;;;;;;14.85;3.80;;;13.60;99.90;;;;;;4953698;29;20047;-81
2022/11/10 12:15:22;;;;;;;13.32;3.45;;;13.70;99.90;;;;;;4947034;29;20043;-81
2022/11/10 12:18:33;;;;;;;15.20;3.40;;;13.70;99.90;;;;;;4936648;29;20039;-81
2022/11/10 12:20:59;;;;;;;13.60;3.80;;;14.30;99.90;;;;;;4950829;29;20092;-81
2022/11/10 12:23:33;;;;;;;11.68;3.35;;;13.70;99.90;;;;;;4966086;29;20102;-81
2022/11/10 12:26:22;;;;;;;11.30;3.05;;;13.60;99.90;;;;;;4965435;28;20041;-81
2022/11/10 12:29:15;;;;;;;13.80;3.35;;;13.60;99.90;;;;;;4965181;28;20027;-81
2022/11/10 12:31:44;;;;;;;14.88;3.40;;;13.60;99.90;;;;;;4952171;28;20051;-78
2022/11/10 12:34:35;;;;;;;13.25;3.47;;;13.60;99.90;;;;;;4951769;28;20110;-77
2022/11/10 12:37:05;;;;;;;19.08;3.50;;;13.60;99.90;;;;;;4978993;28;20101;-78
2022/11/10 12:39:41;;;;;;;13.18;3.47;;;13.60;99.90;;;;;;4967546;28;20042;-77
2022/11/10 12:42:13;;;;;;;13.40;3.83;;;13.60;99.90;;;;;;4948448;29;20027;-77
2022/11/10 12:44:48;;;;;;;12.77;3.30;;;13.60;99.90;;;;;;4950917;28;20026;-77
2022/11/10 12:47:18;;;;;;;13.32;3.28;;;13.70;99.90;;;;;;4967234;28;20039;-78
2022/11/10 12:49:59;;;;;;;14.60;3.30;;;13.70;99.90;;;;;;4967022;28;20045;-77
2022/11/10 12:52:39;;;;;;;18.10;3.83;;;13.70;99.90;;;;;;4945466;28;20119;-77
2022/11/10 12:55:05;;;;;;;19.30;3.70;;;13.70;99.90;;;;;;4946587;28;20210;-76
2022/11/10 12:57:32;;;;;;;12.25;3.10;;;13.60;99.90;;;;;;4948371;28;20081;-77
2022/11/10 13:00:06;;;;;;;12.48;3.25;;;13.70;99.90;;;;;;4964979;28;20123;-79
2022/11/10 13:02:45;;;;;;;13.05;3.88;;;13.70;99.90;;;;;;4964603;28;20076;-78
2022/11/10 13:05:16;;;;;;;15.27;3.70;;;13.70;99.90;;;;;;4946119;28;20063;-80
2022/11/10 13:07:48;;;;;;;15.35;3.22;;;13.70;99.90;;;;;;4947318;28;20031;-79
2022/11/10 13:10:26;;;;;;;18.13;3.53;;;13.60;99.90;;;;;;4964286;28;20213;-78